Time;durP1;ratioP1;P1;durP2;ratioP2;P2;SDS_P1;SDS_P2;PMS_P1;PMS_P2;Temp;Humidity;BMP_temperature;BMP_pressure;BME280_temperature;BME280_humidity;BME280_pressure;Samples;Min_cycle;Max_cycle;Signal;HPM_P1;HPM_P2
2023/01/21 00:00:37;;;;;;;25.70;19.37;;;;;;;2.93;100.00;92166.41;5089096;28;20236;-82
2023/01/21 00:03:02;;;;;;;23.40;18.50;;;;;;;2.70;100.00;92161.53;5090692;28;20185;-82
2023/01/21 00:05:28;;;;;;;22.13;17.77;;;;;;;2.95;100.00;92168.75;5090497;28;20220;-81
2023/01/21 00:07:53;;;;;;;21.83;17.77;;;;;;;2.77;100.00;92151.03;5089551;28;20196;-82
2023/01/21 00:10:18;;;;;;;25.60;19.17;;;;;;;2.74;100.00;92161.84;5089460;28;20212;-84
2023/01/21 00:12:44;;;;;;;22.77;18.00;;;;;;;2.85;100.00;92169.41;5106037;28;20189;-81
2023/01/21 00:15:09;;;;;;;20.80;17.63;;;;;;;2.58;100.00;92131.78;5088572;28;20315;-80
2023/01/21 00:17:35;;;;;;;19.30;17.43;;;;;;;2.83;100.00;92150.06;5090339;28;20192;-81
2023/01/21 00:20:02;;;;;;;24.57;19.33;;;;;;;2.79;100.00;92174.75;5089889;28;20296;-80
2023/01/21 00:22:28;;;;;;;18.47;16.57;;;;;;;2.72;100.00;92143.25;5089405;28;20866;-81
2023/01/21 00:24:53;;;;;;;24.70;19.70;;;;;;;2.51;100.00;92131.16;5092012;28;20208;-81
2023/01/21 00:27:19;;;;;;;21.17;18.90;;;;;;;2.55;100.00;92148.47;5089843;28;20220;-81
2023/01/21 00:29:44;;;;;;;22.63;17.93;;;;;;;2.62;100.00;92153.44;5090336;28;20259;-81
2023/01/21 00:32:09;;;;;;;24.63;18.97;;;;;;;2.51;100.00;92136.31;5090213;28;20176;-84
2023/01/21 00:34:35;;;;;;;25.00;18.90;;;;;;;2.74;100.00;92165.19;5091275;28;20225;-81
2023/01/21 00:37:00;;;;;;;24.83;19.27;;;;;;;2.55;100.00;92152.88;5088339;28;21085;-82
2023/01/21 00:39:25;;;;;;;20.63;18.40;;;;;;;2.41;100.00;92143.94;5088980;28;20812;-81
2023/01/21 00:41:51;;;;;;;23.50;19.30;;;;;;;2.31;100.00;92115.50;5089317;28;20176;-81
2023/01/21 00:44:18;;;;;;;23.53;19.47;;;;;;;2.13;100.00;92128.69;5089622;28;20279;-81
2023/01/21 00:46:43;;;;;;;19.67;17.70;;;;;;;2.24;100.00;92154.28;5089793;28;20200;-82
2023/01/21 00:49:09;;;;;;;24.27;19.90;;;;;;;2.38;100.00;92170.19;5088397;28;20236;-80
2023/01/21 00:51:34;;;;;;;20.40;17.27;;;;;;;2.37;100.00;92155.72;5089566;28;20254;-81
2023/01/21 00:53:59;;;;;;;23.30;18.87;;;;;;;2.48;100.00;92144.53;5088400;28;20192;-82
2023/01/21 00:56:25;;;;;;;20.73;17.23;;;;;;;2.32;100.00;92115.25;5089225;28;20191;-81
2023/01/21 00:58:51;;;;;;;26.83;18.53;;;;;;;2.34;100.00;92130.47;5088695;28;20203;-81
2023/01/21 01:01:20;;;;;;;22.17;18.03;;;;;;;2.62;100.00;92156.03;5093953;28;20248;-82
2023/01/21 01:03:46;;;;;;;18.93;17.00;;;;;;;2.60;100.00;92150.34;5088564;28;20191;-81
2023/01/21 01:06:14;;;;;;;22.40;18.70;;;;;;;2.50;100.00;92140.72;5087663;28;20213;-82
2023/01/21 01:08:40;;;;;;;22.93;18.03;;;;;;;2.59;100.00;92152.13;5090989;28;20188;-81
2023/01/21 01:11:06;;;;;;;22.83;17.83;;;;;;;2.52;100.00;92132.75;5088491;28;20220;-81
2023/01/21 01:13:33;;;;;;;19.40;16.63;;;;;;;2.77;100.00;92158.78;5090075;28;20184;-82
2023/01/21 01:15:59;;;;;;;18.93;16.53;;;;;;;2.61;100.00;92136.44;5089475;28;20228;-81
2023/01/21 01:18:26;;;;;;;20.30;17.70;;;;;;;2.50;100.00;92160.53;5089240;28;20197;-81
2023/01/21 01:20:51;;;;;;;19.77;17.43;;;;;;;2.29;100.00;92140.72;5088484;28;20217;-81
2023/01/21 01:23:17;;;;;;;18.60;15.90;;;;;;;2.59;100.00;92157.28;5088083;28;20239;-81
2023/01/21 01:25:42;;;;;;;19.30;17.13;;;;;;;2.58;100.00;92121.47;5087635;28;20228;-81
2023/01/21 01:28:08;;;;;;;18.20;16.27;;;;;;;2.68;100.00;92142.16;5089532;28;20193;-82
2023/01/21 01:30:34;;;;;;;20.43;18.07;;;;;;;2.62;100.00;92138.78;5090237;28;20228;-82
2023/01/21 01:32:59;;;;;;;23.70;17.13;;;;;;;2.56;100.00;92136.38;5091460;28;20205;-82
2023/01/21 01:35:25;;;;;;;20.17;17.20;;;;;;;2.53;100.00;92129.13;5089205;28;20287;-82
2023/01/21 01:37:50;;;;;;;20.13;18.00;;;;;;;2.59;100.00;92125.59;5089417;28;20180;-82
2023/01/21 01:40:16;;;;;;;20.03;16.90;;;;;;;2.61;100.00;92141.59;5088991;28;20255;-83
2023/01/21 01:42:42;;;;;;;22.20;18.17;;;;;;;2.54;100.00;92140.97;5089355;28;20188;-82
2023/01/21 01:45:13;;;;;;;22.07;18.30;;;;;;;2.66;100.00;92123.63;5089028;28;20853;-82
2023/01/21 01:47:47;;;;;;;20.97;17.90;;;;;;;2.58;100.00;92104.22;5089317;28;20191;-82
2023/01/21 01:50:16;;;;;;;23.13;15.93;;;;;;;2.65;100.00;92111.72;5086651;28;20216;-81
2023/01/21 01:52:43;;;;;;;19.73;16.03;;;;;;;2.50;100.00;92080.69;5089200;28;20303;-81
2023/01/21 01:55:11;;;;;;;18.90;15.57;;;;;;;2.38;100.00;92085.19;5088993;28;20263;-82
2023/01/21 01:57:40;;;;;;;21.07;18.30;;;;;;;2.55;100.00;92106.50;5088933;28;20222;-81
2023/01/21 02:00:09;;;;;;;20.37;18.27;;;;;;;2.58;100.00;92093.91;5086761;28;20216;-81
2023/01/21 02:02:35;;;;;;;20.30;17.43;;;;;;;2.56;100.00;92077.13;5089593;28;20197;-81
2023/01/21 02:05:07;;;;;;;19.17;17.20;;;;;;;2.39;100.00;92072.06;5087573;28;20303;-78
2023/01/21 02:07:39;;;;;;;22.80;17.80;;;;;;;2.72;100.00;92091.72;5089272;28;20188;-78
2023/01/21 02:10:10;;;;;;;27.77;17.90;;;;;;;2.73;100.00;92109.50;5089876;28;20221;-73
2023/01/21 02:12:37;;;;;;;26.13;16.33;;;;;;;2.74;100.00;92087.88;5093087;28;20203;-76
2023/01/21 02:15:04;;;;;;;19.63;15.57;;;;;;;2.71;100.00;92090.16;5092710;28;20220;-75
2023/01/21 02:17:56;;;;;;;39.20;16.27;;;;;;;2.66;100.00;92077.25;5092694;28;20185;-79
2023/01/21 02:20:31;;;;;;;30.17;16.50;;;;;;;2.50;100.00;92080.69;5092521;28;21231;-78
2023/01/21 02:23:22;;;;;;;27.37;16.03;;;;;;;2.53;100.00;92075.03;5093723;28;20983;-79
2023/01/21 02:26:09;;;;;;;23.27;16.30;;;;;;;2.32;100.00;92057.84;5091440;28;20231;-75
2023/01/21 02:28:56;;;;;;;18.07;14.10;;;;;;;2.47;100.00;92057.97;5093094;28;20185;-80
2023/01/21 02:31:45;;;;;;;47.23;15.80;;;;;;;2.23;100.00;92038.66;5086790;28;20213;-75
2023/01/21 02:34:10;;;;;;;16.33;14.63;;;;;;;2.44;100.00;92066.19;5074945;28;20235;-76
2023/01/21 02:36:48;;;;;;;36.10;16.27;;;;;;;2.52;100.00;92060.63;5091460;28;20180;-75
2023/01/21 02:39:25;;;;;;;19.67;16.67;;;;;;;2.31;100.00;92051.91;5090705;28;20262;-75
2023/01/21 02:42:05;;;;;;;17.67;15.50;;;;;;;2.46;100.00;92035.84;5091655;28;20721;-76
2023/01/21 02:44:36;;;;;;;16.97;15.23;;;;;;;2.45;100.00;92049.72;5090884;28;20252;-77
2023/01/21 02:47:24;;;;;;;19.87;16.17;;;;;;;2.13;100.00;92012.84;5091419;28;20189;-77
2023/01/21 02:50:09;;;;;;;17.93;13.67;;;;;;;2.46;100.00;92046.13;5090441;28;20248;-76
2023/01/21 02:52:35;;;;;;;18.20;14.90;;;;;;;2.37;100.00;92042.41;5092430;28;20276;-77
2023/01/21 02:55:01;;;;;;;17.27;14.77;;;;;;;2.28;100.00;92047.25;5091165;28;20228;-77
2023/01/21 02:57:42;;;;;;;16.13;14.43;;;;;;;2.22;100.00;92040.47;5091253;28;20223;-77
2023/01/21 03:00:21;;;;;;;15.80;14.30;;;;;;;2.08;100.00;92023.84;5091540;28;20220;-77
2023/01/21 03:02:56;;;;;;;15.27;13.87;;;;;;;2.12;100.00;92039.59;5092902;28;20346;-76
2023/01/21 03:05:44;;;;;;;14.27;12.87;;;;;;;2.15;100.00;92037.31;5091737;28;20314;-77
2023/01/21 03:08:23;;;;;;;15.07;13.63;;;;;;;2.32;100.00;92029.50;5091526;28;20184;-77
2023/01/21 03:11:08;;;;;;;12.47;11.57;;;;;;;2.21;100.00;92008.00;5089043;28;20232;-77
2023/01/21 03:19:18;;;;;;;16.13;14.70;;;;;;;2.14;100.00;91998.94;5091296;28;20247;-77
2023/01/21 03:21:45;;;;;;;14.30;12.90;;;;;;;2.08;100.00;92018.72;5091119;28;20201;-77
2023/01/21 03:24:13;;;;;;;16.00;14.47;;;;;;;2.05;100.00;91997.81;5090902;28;20273;-77
2023/01/21 03:26:44;;;;;;;16.20;14.70;;;;;;;2.01;100.00;92004.47;5091638;28;20187;-78
2023/01/21 03:29:23;;;;;;;15.30;14.13;;;;;;;2.02;100.00;91990.59;5091076;28;20237;-78
2023/01/21 03:31:52;;;;;;;16.53;14.97;;;;;;;1.92;100.00;91980.97;5091821;28;20647;-77
2023/01/21 03:34:19;;;;;;;14.97;13.57;;;;;;;1.79;100.00;91978.75;5092610;28;20236;-77
2023/01/21 03:36:53;;;;;;;14.50;13.27;;;;;;;1.72;100.00;91982.53;5092015;28;20244;-77
2023/01/21 03:39:31;;;;;;;15.33;13.83;;;;;;;1.55;100.00;91970.53;5093824;28;20238;-77
2023/01/21 03:41:57;;;;;;;14.40;13.07;;;;;;;1.61;100.00;91981.63;5090252;28;20181;-77
2023/01/21 03:44:23;;;;;;;15.13;13.73;;;;;;;1.42;100.00;91976.03;5090398;28;20279;-78
2023/01/21 03:47:00;;;;;;;14.80;13.50;;;;;;;1.51;100.00;91977.16;5090742;28;20216;-77
2023/01/21 03:49:42;;;;;;;13.43;12.27;;;;;;;1.30;100.00;91961.72;5090418;28;20235;-77
2023/01/21 03:52:11;;;;;;;14.60;13.40;;;;;;;1.51;100.00;91981.50;5089633;28;20224;-77
2023/01/21 03:54:37;;;;;;;13.17;12.27;;;;;;;1.58;100.00;91970.03;5089787;28;20225;-77
2023/01/21 03:57:03;;;;;;;13.23;12.23;;;;;;;1.76;100.00;91957.88;5091793;28;20247;-77
2023/01/21 03:59:28;;;;;;;11.40;10.60;;;;;;;1.52;100.00;91937.56;5090240;28;20254;-77
2023/01/21 04:01:54;;;;;;;11.13;10.33;;;;;;;1.76;100.00;91950.94;5091211;28;20217;-77
2023/01/21 04:04:19;;;;;;;10.57;9.67;;;;;;;1.98;100.00;91946.53;5089978;28;20228;-77
2023/01/21 04:06:44;;;;;;;11.90;11.10;;;;;;;2.00;100.00;91917.97;5090880;28;20181;-77
2023/01/21 04:09:10;;;;;;;11.40;10.60;;;;;;;2.14;100.00;91966.25;5089799;28;20224;-77
2023/01/21 04:11:35;;;;;;;11.67;10.93;;;;;;;2.01;100.00;91955.56;5091093;28;20263;-77
2023/01/21 04:14:01;;;;;;;15.00;13.67;;;;;;;1.72;100.00;91944.72;5089316;28;20268;-77
2023/01/21 04:16:26;;;;;;;15.07;13.70;;;;;;;1.67;100.00;91960.09;5090399;28;20252;-77
2023/01/21 04:18:52;;;;;;;17.67;15.70;;;;;;;1.16;100.00;91927.88;5090066;28;20187;-77
2023/01/21 04:21:18;;;;;;;16.83;15.20;;;;;;;1.47;100.00;91945.22;5089620;28;20212;-78
2023/01/21 04:23:43;;;;;;;15.57;14.27;;;;;;;1.48;100.00;91951.91;5091130;28;20192;-77
2023/01/21 04:26:09;;;;;;;17.97;15.93;;;;;;;1.61;100.00;91951.56;5089173;28;20212;-77
2023/01/21 04:28:35;;;;;;;16.67;15.17;;;;;;;1.62;100.00;91954.88;5090662;28;20193;-77
2023/01/21 04:31:00;;;;;;;15.30;13.77;;;;;;;1.61;100.00;91961.84;5089884;28;20236;-77
2023/01/21 04:33:26;;;;;;;16.63;14.90;;;;;;;1.58;100.00;91936.63;5089686;28;20184;-77
2023/01/21 04:35:56;;;;;;;16.70;14.47;;;;;;;1.67;100.00;91947.22;5090499;28;20236;-77
2023/01/21 04:38:21;;;;;;;16.63;14.83;;;;;;;1.84;100.00;91980.63;5090044;28;20204;-77
2023/01/21 04:40:47;;;;;;;17.13;15.47;;;;;;;1.86;100.00;91973.41;5089373;28;20228;-77
2023/01/21 04:43:12;;;;;;;15.80;14.43;;;;;;;1.97;100.00;91946.78;5089620;28;20184;-77
2023/01/21 04:45:37;;;;;;;13.37;12.37;;;;;;;2.14;100.00;91975.75;5089448;28;20262;-77
2023/01/21 04:48:03;;;;;;;11.70;11.00;;;;;;;2.13;100.00;91980.16;5090386;28;20177;-77
2023/01/21 04:50:28;;;;;;;11.63;10.93;;;;;;;2.16;100.00;91986.59;5088887;28;20235;-78
2023/01/21 04:52:54;;;;;;;12.23;11.00;;;;;;;1.92;100.00;91998.97;5090569;28;20200;-78
2023/01/21 04:55:19;;;;;;;10.37;9.77;;;;;;;1.70;100.00;91980.19;5089228;28;20308;-77
2023/01/21 04:57:44;;;;;;;11.00;10.17;;;;;;;1.66;100.00;91992.00;5089037;28;20185;-77
2023/01/21 05:00:10;;;;;;;14.47;13.37;;;;;;;1.73;100.00;91994.38;5089442;28;20262;-77
2023/01/21 05:02:36;;;;;;;14.00;12.70;;;;;;;1.79;100.00;92008.84;5088678;28;20192;-76
2023/01/21 05:05:01;;;;;;;13.03;12.03;;;;;;;1.87;100.00;92003.28;5089275;28;20270;-78
2023/01/21 05:07:26;;;;;;;14.60;13.10;;;;;;;1.92;100.00;91990.47;5090714;28;20192;-77
2023/01/21 05:09:52;;;;;;;15.07;13.47;;;;;;;2.00;100.00;91987.47;5089114;28;20236;-77
2023/01/21 05:12:17;;;;;;;15.77;14.37;;;;;;;2.13;100.00;92023.13;5089197;28;20208;-77
2023/01/21 05:14:43;;;;;;;15.13;13.67;;;;;;;1.94;100.00;92027.03;5090138;28;20284;-77
2023/01/21 05:17:08;;;;;;;16.10;14.60;;;;;;;1.53;100.00;92000.84;5089556;28;20241;-81
2023/01/21 05:19:33;;;;;;;34.03;26.43;;;;;;;1.79;100.00;92030.19;5088740;28;20228;-83
2023/01/21 05:21:59;;;;;;;22.10;19.80;;;;;;;1.72;100.00;92019.31;5089695;28;20196;-82
2023/01/21 05:24:24;;;;;;;17.20;15.50;;;;;;;1.83;100.00;92017.63;5088831;28;20323;-82
2023/01/21 05:26:50;;;;;;;16.50;14.90;;;;;;;1.91;100.00;92023.16;5089441;28;20184;-81
2023/01/21 05:29:16;;;;;;;18.57;16.67;;;;;;;1.85;100.00;92028.47;5089299;28;20284;-82
2023/01/21 05:31:42;;;;;;;17.27;15.57;;;;;;;1.68;100.00;92013.88;5089490;28;20191;-82
2023/01/21 05:34:09;;;;;;;17.63;15.83;;;;;;;1.61;100.00;92044.16;5088085;28;20204;-83
2023/01/21 05:36:34;;;;;;;16.73;15.03;;;;;;;1.72;100.00;92049.41;5089417;28;20223;-84
2023/01/21 05:39:00;;;;;;;15.80;14.20;;;;;;;1.53;100.00;92002.63;5089160;28;20185;-84
2023/01/21 05:41:25;;;;;;;15.40;14.00;;;;;;;1.61;100.00;92018.44;5089515;28;20193;-83
2023/01/21 05:43:51;;;;;;;13.93;12.63;;;;;;;1.86;100.00;92050.59;5088794;28;20192;-82
2023/01/21 05:46:16;;;;;;;14.00;12.70;;;;;;;1.68;100.00;92042.16;5091706;28;20188;-81
2023/01/21 05:48:42;;;;;;;14.07;12.83;;;;;;;1.61;100.00;92062.16;5091150;28;20247;-81
2023/01/21 05:51:08;;;;;;;14.17;12.97;;;;;;;1.38;100.00;92041.81;5093114;28;20236;-81
2023/01/21 05:53:33;;;;;;;19.13;17.13;;;;;;;1.45;100.00;92065.53;5093209;28;20278;-82
2023/01/21 05:55:59;;;;;;;14.73;13.53;;;;;;;1.67;100.00;92078.44;5093052;28;20212;-79
2023/01/21 05:58:25;;;;;;;14.83;13.53;;;;;;;1.21;100.00;92012.00;5093508;28;20252;-83
2023/01/21 06:00:50;;;;;;;15.40;14.07;;;;;;;1.44;100.00;92043.41;5096294;28;20213;-85
2023/01/21 06:03:16;;;;;;;14.77;13.47;;;;;;;1.42;100.00;92037.72;5092940;28;20230;-83
2023/01/21 06:05:42;;;;;;;14.43;13.23;;;;;;;1.40;100.00;92029.47;5092214;28;20229;-82
2023/01/21 06:08:09;;;;;;;13.43;12.33;;;;;;;1.36;100.00;92020.69;5093905;28;20191;-82
2023/01/21 06:10:34;;;;;;;13.57;12.67;;;;;;;1.57;100.00;92053.34;5092377;28;20450;-83
2023/01/21 06:13:00;;;;;;;14.00;12.70;;;;;;;1.67;100.00;92048.34;5093175;28;20184;-83
2023/01/21 06:15:26;;;;;;;13.27;12.17;;;;;;;1.70;100.00;92056.59;5092570;28;20279;-85
2023/01/21 06:17:52;;;;;;;13.53;12.30;;;;;;;1.66;100.00;92058.88;5092575;28;20184;-81
2023/01/21 06:20:17;;;;;;;15.00;13.67;;;;;;;1.22;100.00;92005.81;5091995;28;20221;-83
2023/01/21 06:22:43;;;;;;;15.17;13.60;;;;;;;1.60;100.00;92049.53;5092293;28;20858;-81
2023/01/21 06:25:09;;;;;;;15.90;14.43;;;;;;;1.92;100.00;92049.66;5091747;28;20228;-83
2023/01/21 06:27:38;;;;;;;16.87;15.00;;;;;;;1.88;100.00;92049.38;5092322;28;20226;-75
2023/01/21 06:30:09;;;;;;;15.70;14.20;;;;;;;1.83;100.00;92038.22;5091166;28;20243;-75
2023/01/21 06:32:35;;;;;;;14.33;13.03;;;;;;;1.81;100.00;92060.84;5091578;28;20193;-77
2023/01/21 06:35:00;;;;;;;14.53;13.20;;;;;;;1.56;100.00;92009.84;5088357;28;20288;-76
2023/01/21 06:37:26;;;;;;;14.53;13.33;;;;;;;1.89;100.00;92081.78;5089691;28;20215;-77
2023/01/21 06:39:52;;;;;;;13.07;12.10;;;;;;;2.00;100.00;92082.69;5089514;28;20236;-77
2023/01/21 06:42:17;;;;;;;13.57;12.57;;;;;;;1.94;100.00;92063.06;5090888;28;20177;-79
2023/01/21 06:44:43;;;;;;;14.17;12.87;;;;;;;2.18;100.00;92070.28;5089397;28;20217;-76
2023/01/21 06:47:09;;;;;;;13.03;11.93;;;;;;;2.20;100.00;92073.41;5092020;28;20212;-79
2023/01/21 06:49:34;;;;;;;12.60;11.63;;;;;;;1.99;100.00;92065.69;5090752;28;20262;-77
2023/01/21 06:52:00;;;;;;;12.10;11.30;;;;;;;1.96;100.00;92071.34;5090537;28;20239;-92
2023/01/21 06:54:25;;;;;;;13.03;11.73;;;;;;;1.76;100.00;92040.97;5091003;28;20228;-79
2023/01/21 06:56:51;;;;;;;15.23;14.03;;;;;;;2.16;100.00;92094.72;5089567;28;20661;-80
2023/01/21 06:59:16;;;;;;;16.73;14.83;;;;;;;1.98;100.00;92100.19;5091268;28;20235;-78
2023/01/21 07:01:42;;;;;;;17.13;15.47;;;;;;;2.22;100.00;92101.50;5089526;28;20192;-77
2023/01/21 07:04:07;;;;;;;17.17;15.67;;;;;;;2.14;100.00;92114.78;5088748;28;20203;-74
2023/01/21 07:06:33;;;;;;;17.50;14.70;;;;;;;2.13;100.00;92103.72;5090013;28;20180;-72
2023/01/21 07:08:58;;;;;;;16.67;15.07;;;;;;;2.08;100.00;92111.38;5089929;28;20192;-75
2023/01/21 07:11:23;;;;;;;16.23;14.50;;;;;;;2.16;100.00;92107.59;5089847;28;20185;-75
2023/01/21 07:13:49;;;;;;;25.03;21.13;;;;;;;2.11;100.00;92100.59;5089028;28;20188;-78
2023/01/21 07:16:14;;;;;;;21.33;17.90;;;;;;;2.10;100.00;92069.94;5084535;28;20227;-79
2023/01/21 07:18:40;;;;;;;21.60;19.70;;;;;;;2.25;100.00;92085.56;5077358;28;20428;-84
2023/01/21 07:21:05;;;;;;;19.63;17.73;;;;;;;2.40;100.00;92099.38;5090945;28;20255;-80
2023/01/21 07:23:30;;;;;;;18.60;16.43;;;;;;;2.28;100.00;92085.88;5090697;28;20204;-79
2023/01/21 07:25:56;;;;;;;15.37;14.10;;;;;;;2.57;100.00;92109.63;5086245;28;20272;-80
2023/01/21 07:28:22;;;;;;;16.90;15.20;;;;;;;2.30;100.00;92088.19;5089850;28;20185;-75
2023/01/21 07:30:47;;;;;;;16.00;14.53;;;;;;;2.54;100.00;92097.97;5089651;28;20236;-75
2023/01/21 07:33:14;;;;;;;14.37;13.17;;;;;;;3.00;100.00;92109.50;5090374;28;20185;-77
2023/01/21 07:35:39;;;;;;;16.80;15.30;;;;;;;2.76;100.00;92075.53;5088808;28;20229;-77
2023/01/21 07:38:05;;;;;;;17.13;15.33;;;;;;;2.94;100.00;92107.91;5089535;28;20199;-76
2023/01/21 07:40:30;;;;;;;16.33;14.80;;;;;;;2.90;100.00;92078.47;5088046;28;20300;-76
2023/01/21 07:42:56;;;;;;;14.90;13.50;;;;;;;3.06;100.00;92093.84;5087419;28;20200;-77
2023/01/21 07:45:22;;;;;;;14.37;13.17;;;;;;;3.15;100.00;92086.41;5087816;28;20320;-73
2023/01/21 07:47:47;;;;;;;15.43;14.00;;;;;;;3.06;100.00;92067.28;5089699;28;20189;-73
2023/01/21 07:50:13;;;;;;;16.20;14.53;;;;;;;3.17;100.00;92089.53;5088712;28;20254;-72
2023/01/21 07:52:38;;;;;;;16.70;15.00;;;;;;;3.21;100.00;92096.53;5086046;28;20248;-73
2023/01/21 07:55:04;;;;;;;15.37;14.23;;;;;;;3.40;100.00;92068.53;5090000;28;21028;-73
2023/01/21 07:57:29;;;;;;;11.60;10.57;;;;;;;3.86;100.00;92072.94;5089639;28;20224;-73
2023/01/21 07:59:55;;;;;;;10.93;10.30;;;;;;;3.94;100.00;92075.03;5089265;28;20311;-72
2023/01/21 08:02:21;;;;;;;11.43;10.73;;;;;;;3.98;100.00;92076.09;5090967;28;20201;-72
2023/01/21 08:04:46;;;;;;;11.60;10.93;;;;;;;4.07;100.00;92053.16;5086846;28;21254;-75
2023/01/21 08:07:11;;;;;;;11.13;10.40;;;;;;;4.31;100.00;92055.03;5088384;28;20193;-71
2023/01/21 08:09:37;;;;;;;11.10;10.23;;;;;;;4.48;100.00;92091.03;5090654;28;20215;-73
2023/01/21 08:12:04;;;;;;;10.60;9.83;;;;;;;4.69;99.34;92097.78;5091131;28;20192;-72
2023/01/21 08:14:29;;;;;;;10.53;9.83;;;;;;;4.94;97.53;92079.75;5089924;28;20223;-72
2023/01/21 08:16:55;;;;;;;10.23;9.63;;;;;;;4.95;97.38;92089.81;5093256;28;20196;-74
2023/01/21 08:19:20;;;;;;;9.67;9.17;;;;;;;4.60;98.58;92032.91;5085712;28;20228;-79
2023/01/21 08:21:45;;;;;;;10.63;9.97;;;;;;;4.98;98.17;92086.72;5087496;28;20210;-76
2023/01/21 08:24:11;;;;;;;10.63;9.97;;;;;;;5.15;94.70;92098.66;5091658;28;20231;-76
2023/01/21 08:26:36;;;;;;;10.13;9.50;;;;;;;5.19;94.72;92100.47;5091728;28;20234;-76
2023/01/21 08:29:02;;;;;;;10.13;9.63;;;;;;;5.31;90.48;92100.22;5089102;28;20180;-72
2023/01/21 08:31:27;;;;;;;10.40;9.87;;;;;;;5.25;92.48;92104.59;5090022;28;20181;-73
2023/01/21 08:33:52;;;;;;;9.80;9.30;;;;;;;5.28;91.40;92106.66;5089048;28;20188;-75
2023/01/21 08:36:18;;;;;;;9.33;8.83;;;;;;;5.27;92.17;92099.16;5089393;28;20215;-74
2023/01/21 08:38:43;;;;;;;10.50;10.00;;;;;;;5.26;92.04;92111.31;5089718;28;20196;-75
2023/01/21 08:41:09;;;;;;;9.53;9.00;;;;;;;5.12;92.82;92105.09;5090366;28;20248;-75
2023/01/21 08:43:35;;;;;;;10.30;9.80;;;;;;;5.17;89.65;92104.34;5121674;28;20243;-75
2023/01/21 08:46:01;;;;;;;11.33;10.33;;;;;;;5.41;89.45;92123.50;5088252;28;20251;-77
2023/01/21 08:48:27;;;;;;;10.67;9.90;;;;;;;5.36;92.76;92120.91;5086692;28;20192;-73
2023/01/21 08:50:52;;;;;;;10.33;9.73;;;;;;;5.26;94.67;92100.22;5089426;28;20235;-74
2023/01/21 08:53:18;;;;;;;10.53;10.00;;;;;;;5.49;92.49;92123.75;5088953;28;20224;-75
2023/01/21 08:55:43;;;;;;;10.10;9.60;;;;;;;5.54;93.41;92131.50;5088835;28;20296;-84
2023/01/21 08:58:09;;;;;;;11.60;10.90;;;;;;;5.70;91.83;92108.97;5089405;28;20746;-80
2023/01/21 09:00:34;;;;;;;11.97;11.17;;;;;;;5.82;90.70;92138.00;5089484;28;20315;-81
2023/01/21 09:03:00;;;;;;;11.63;10.93;;;;;;;5.92;89.71;92143.16;5088459;28;20191;-82
2023/01/21 09:05:25;;;;;;;11.57;10.87;;;;;;;6.05;89.20;92147.81;5088017;28;20216;-81
2023/01/21 09:07:50;;;;;;;11.40;10.40;;;;;;;5.88;91.46;92127.38;5088463;28;20908;-81
2023/01/21 09:10:59;;;;;;;10.60;10.03;;;;;;;6.62;86.34;92148.16;5088775;28;20508;-80
2023/01/21 09:13:04;;;;;;;11.63;10.90;;;;;;;7.01;83.72;92156.81;5087975;28;20707;-80
2023/01/21 09:15:30;;;;;;;10.70;10.07;;;;;;;7.02;83.62;92126.47;5089329;28;20216;-81
2023/01/21 09:17:55;;;;;;;14.27;13.43;;;;;;;6.87;83.36;92140.28;5088271;28;20184;-82
2023/01/21 09:20:20;;;;;;;11.20;10.47;;;;;;;6.87;84.48;92135.09;5088300;28;20212;-80
2023/01/21 09:22:46;;;;;;;11.23;10.53;;;;;;;6.71;85.03;92132.84;5091132;28;20206;-80
2023/01/21 09:25:11;;;;;;;10.17;9.67;;;;;;;6.75;86.16;92137.22;5087945;28;20250;-80
2023/01/21 09:27:36;;;;;;;9.97;9.37;;;;;;;6.99;85.94;92132.19;5090464;28;20198;-80
2023/01/21 09:30:02;;;;;;;9.67;8.97;;;;;;;6.85;85.20;92134.56;5090179;28;20216;-81
2023/01/21 09:32:27;;;;;;;10.50;10.03;;;;;;;6.80;87.24;92124.25;5088207;28;20251;-81
2023/01/21 09:34:53;;;;;;;9.67;9.17;;;;;;;6.82;86.85;92119.53;5087915;28;20224;-79
2023/01/21 09:37:18;;;;;;;9.90;9.33;;;;;;;6.81;86.03;92112.81;5088501;28;20192;-81
2023/01/21 09:39:43;;;;;;;11.03;10.43;;;;;;;6.89;86.83;92099.28;5089077;28;20236;-80
2023/01/21 09:42:18;;;;;;;10.47;9.97;;;;;;;6.91;87.55;92117.94;5088695;28;20180;-80
2023/01/21 09:44:47;;;;;;;9.60;9.20;;;;;;;6.72;86.01;92101.47;5088352;28;20255;-81
2023/01/21 09:47:15;;;;;;;10.83;10.33;;;;;;;6.69;86.04;92102.00;5087976;28;20968;-79
2023/01/21 09:49:47;;;;;;;10.70;10.10;;;;;;;6.78;86.94;92105.56;5086813;28;20232;-80
2023/01/21 09:52:21;;;;;;;10.97;10.40;;;;;;;7.03;86.13;92102.06;5087212;28;20221;-79
2023/01/21 09:54:46;;;;;;;9.57;9.17;;;;;;;7.04;85.65;92083.63;5087852;28;20242;-79
2023/01/21 09:57:30;;;;;;;10.67;10.07;;;;;;;7.12;85.06;92079.66;5089137;28;20215;-80
2023/01/21 09:59:56;;;;;;;10.73;10.13;;;;;;;7.33;83.21;92081.09;5087790;28;20935;-80
2023/01/21 10:02:24;;;;;;;10.43;9.87;;;;;;;7.21;83.60;92068.44;5088315;28;20227;-81
2023/01/21 10:05:22;;;;;;;10.90;10.30;;;;;;;7.24;84.44;92067.91;5087608;28;20235;-81
2023/01/21 10:08:00;;;;;;;10.77;9.83;;;;;;;7.19;83.98;92065.34;5075279;28;20219;-82
2023/01/21 10:10:45;;;;;;;10.83;10.00;;;;;;;7.23;84.59;92076.75;5090232;28;20256;-80
2023/01/21 10:13:42;;;;;;;11.03;10.20;;;;;;;7.25;84.00;92068.69;5089437;28;20192;-80
2023/01/21 10:16:14;;;;;;;12.30;11.40;;;;;;;7.35;84.26;92058.22;5087326;28;20221;-80
2023/01/21 10:18:44;;;;;;;12.70;11.60;;;;;;;7.44;83.48;92065.16;5088501;28;20204;-81
2023/01/21 10:21:31;;;;;;;11.87;10.80;;;;;;;7.46;83.88;92065.66;5086369;28;20900;-80
2023/01/21 10:24:09;;;;;;;10.70;10.10;;;;;;;7.47;82.29;92062.00;5085492;28;20226;-82
2023/01/21 10:26:35;;;;;;;11.40;10.80;;;;;;;7.33;83.30;92061.06;5088783;28;20203;-80
2023/01/21 10:29:00;;;;;;;10.97;10.27;;;;;;;7.32;84.31;92067.31;5087337;28;20245;-80
2023/01/21 10:31:36;;;;;;;11.37;10.57;;;;;;;7.46;83.52;92070.84;5089041;28;20185;-80
2023/01/21 10:34:11;;;;;;;10.63;9.83;;;;;;;7.44;82.87;92062.56;5093103;28;20184;-80
2023/01/21 10:37:03;;;;;;;10.70;10.10;;;;;;;7.46;83.78;92072.66;5091203;28;20200;-81
2023/01/21 10:39:35;;;;;;;9.43;8.83;;;;;;;7.50;81.71;92056.25;5091374;28;20450;-81
2023/01/21 10:42:32;;;;;;;10.40;9.80;;;;;;;7.43;83.16;92039.44;5091303;28;20181;-81
2023/01/21 10:45:20;;;;;;;9.87;9.37;;;;;;;7.53;83.45;92050.53;5090576;28;20228;-81
2023/01/21 10:47:47;;;;;;;10.03;9.27;;;;;;;7.63;84.25;92047.06;5091391;28;20185;-81
2023/01/21 10:50:21;;;;;;;10.33;9.93;;;;;;;7.66;82.90;92059.50;5091354;28;20236;-80
2023/01/21 10:52:49;;;;;;;9.33;8.83;;;;;;;7.84;80.71;92062.19;5092179;28;20235;-81
2023/01/21 10:55:37;;;;;;;9.93;9.33;;;;;;;7.63;84.07;92066.03;5088642;28;20239;-81
2023/01/21 10:58:16;;;;;;;10.03;9.53;;;;;;;7.52;84.11;92056.00;5092262;28;20208;-78
2023/01/21 11:00:46;;;;;;;10.67;10.10;;;;;;;7.85;82.39;92058.56;5089406;28;20220;-81
2023/01/21 11:03:27;;;;;;;9.90;9.33;;;;;;;8.01;78.99;92048.78;5091995;28;20209;-79
2023/01/21 11:05:52;;;;;;;9.47;8.97;;;;;;;8.10;77.49;92045.31;5090255;28;20224;-80
2023/01/21 11:08:21;;;;;;;10.30;9.70;;;;;;;8.05;79.95;92052.34;5091665;28;20196;-81
2023/01/21 11:10:50;;;;;;;9.93;9.30;;;;;;;8.02;78.30;92045.91;5089854;28;21449;-80
2023/01/21 11:13:15;;;;;;;10.60;10.00;;;;;;;7.86;79.73;92031.50;5092472;28;20199;-80
2023/01/21 11:15:49;;;;;;;9.77;9.27;;;;;;;7.89;78.89;92035.41;5090532;28;20244;-80
2023/01/21 11:18:32;;;;;;;9.23;8.63;;;;;;;7.98;80.83;92051.94;5091149;28;20189;-80
2023/01/21 11:21:01;;;;;;;9.93;9.30;;;;;;;7.99;81.19;92054.25;5088834;28;20247;-80
2023/01/21 11:23:33;;;;;;;10.53;9.93;;;;;;;8.11;77.57;92062.44;5091047;28;20214;-81
2023/01/21 11:26:15;;;;;;;10.20;9.70;;;;;;;8.23;77.12;92063.91;5089619;28;20220;-82
2023/01/21 11:28:40;;;;;;;9.63;9.13;;;;;;;8.08;79.99;92057.78;5089193;28;20244;-81
2023/01/21 11:31:11;;;;;;;10.23;9.63;;;;;;;7.99;80.82;92059.44;5090280;28;20777;-81
2023/01/21 11:33:38;;;;;;;9.47;8.87;;;;;;;8.23;77.74;92053.50;5125227;27;20223;-80